Cramerton, North Carolina
Current Conditions -  °F | °C
As of 6:54 PM on Monday 24 Nov 2014 (Local Time) from KAKH Reporting Station
Clear Clear  
Wind Chill: 66°   Ceiling: Unl
Heat Index: 66°   Visibility: 10mi
Dew Point: 56°   Wind: 8mph
Humidity: 70%   Direction: 200°SSW
Pressure: 29.86"   Gusts: NA
Location:  35.24°N, 81.08°W
Report Text: KAKH 242354Z AUTO 20007KT 10SM CLR 19/13 A2986 RMK AO2 PRESRR SLP108 T01890133 10233 20183 53034
Loading
Personal Weather Stations






























Interactive Weather Map New forecast layout! Learn more

10-Day Weather Forecast

Advertisements
Track Severe Weather on mobile